PWSweather.com
Personal Weather Stations
Station Observations

SkegnessGB

Lat: 53.147585, Lon: 0.345774

Elevation: 18

Station Type: Fine Offset WH3080

http://www.skegnessweather.info/

High Low Average
Temperature 64.2°F17.9°C 39.4°F4.1°C 50.3°F10.2°C
Dew Point 46.5°F8.1°C 39.4°F4.1°C 42.8°F6.0°C
Winds 5.7 mph 9.2 kmh Calm Calm 2.0 mph S3.2 kmh S
Wind Gusts 11.8 mph19.0 kmh -- 4.0 mph6.4 kmh
Humidity 100% 45% 79%
Pressure 30.68 in1038.9 mb 30.43 in1030.5 mb -
Precipitation 0.00 in0.0 mm - -
Hour Temp Dew Point Humidity Winds Wind Gusts Pressure Precip Precip Rate Daily Precip Total
12:00 AM 40.6°F4.8°C 40.6°F4.8°C 100% 2.4 mph SW3.9 kmh SW 3.4 mph5.5 kmh 30.43 in1030.5 mb 0.00 in0.0 mm 0.00 in0.0 mm 0.00 in0.0 mm
12:10 AM 40.3°F4.6°C 40.3°F4.6°C 100% 1.0 mph SW1.6 kmh SW 1.7 mph2.7 kmh 30.43 in1030.5 mb 0.00 in0.0 mm 0.00 in0.0 mm 0.00 in0.0 mm
12:20 AM 39.9°F4.4°C 39.9°F4.4°C 100% 1.6 mph SW2.6 kmh SW 2.5 mph4.0 kmh 30.44 in1030.8 mb 0.00 in0.0 mm 0.00 in0.0 mm 0.00 in0.0 mm
12:30 AM 39.7°F4.3°C 39.7°F4.3°C 100% 1.2 mph SSW1.9 kmh SSW 2.5 mph4.0 kmh 30.44 in1030.8 mb 0.00 in0.0 mm 0.00 in0.0 mm 0.00 in0.0 mm
12:40 AM 39.7°F4.3°C 39.7°F4.3°C 100% 1.2 mph WSW1.9 kmh WSW 1.7 mph2.7 kmh 30.44 in1030.8 mb 0.00 in0.0 mm 0.00 in0.0 mm 0.00 in0.0 mm
12:50 AM 39.7°F4.3°C 39.7°F4.3°C 100% 1.5 mph S2.4 kmh S 2.5 mph4.0 kmh 30.44 in1030.8 mb 0.00 in0.0 mm 0.00 in0.0 mm 0.00 in0.0 mm
01:00 AM 39.7°F4.3°C 39.7°F4.3°C 100% 1.8 mph SW2.9 kmh SW 2.5 mph4.0 kmh 30.45 in1031.2 mb 0.00 in0.0 mm 0.00 in0.0 mm 0.00 in0.0 mm
01:10 AM 39.7°F4.3°C 39.7°F4.3°C 100% 1.2 mph SW1.9 kmh SW 2.5 mph4.0 kmh 30.45 in1031.2 mb 0.00 in0.0 mm 0.00 in0.0 mm 0.00 in0.0 mm
01:20 AM 39.9°F4.4°C 39.9°F4.4°C 100% 2.1 mph SSW3.4 kmh SSW 3.4 mph5.5 kmh 30.46 in1031.5 mb 0.00 in0.0 mm 0.00 in0.0 mm 0.00 in0.0 mm
01:30 AM 39.9°F4.4°C 39.9°F4.4°C 100% 3.1 mph SW5.0 kmh SW 4.9 mph7.9 kmh 30.47 in1031.8 mb 0.00 in0.0 mm 0.00 in0.0 mm 0.00 in0.0 mm
01:40 AM 39.9°F4.4°C 39.9°F4.4°C 100% 2.4 mph SW3.9 kmh SW 3.4 mph5.5 kmh 30.47 in1031.8 mb 0.00 in0.0 mm 0.00 in0.0 mm 0.00 in0.0 mm
01:50 AM 40.1°F4.5°C 40.1°F4.5°C 100% 2.2 mph S3.5 kmh S 3.4 mph5.5 kmh 30.48 in1032.2 mb 0.00 in0.0 mm 0.00 in0.0 mm 0.00 in0.0 mm
02:00 AM 40.1°F4.5°C 40.1°F4.5°C 100% 2.4 mph WSW3.9 kmh WSW 5.9 mph9.5 kmh 30.48 in1032.2 mb 0.00 in0.0 mm 0.00 in0.0 mm 0.00 in0.0 mm
02:10 AM 39.9°F4.4°C 39.9°F4.4°C 100% 1.9 mph S3.1 kmh S 3.4 mph5.5 kmh 30.48 in1032.2 mb 0.00 in0.0 mm 0.00 in0.0 mm 0.00 in0.0 mm
02:20 AM 40.1°F4.5°C 40.1°F4.5°C 100% 2.7 mph SSW4.3 kmh SSW 4.2 mph6.8 kmh 30.49 in1032.5 mb 0.00 in0.0 mm 0.00 in0.0 mm 0.00 in0.0 mm
02:30 AM 40.1°F4.5°C 40.1°F4.5°C 100% 2.5 mph SW4.0 kmh SW 3.4 mph5.5 kmh 30.48 in1032.2 mb 0.00 in0.0 mm 0.00 in0.0 mm 0.00 in0.0 mm
02:40 AM 40.3°F4.6°C 40.3°F4.6°C 100% 1.2 mph E1.9 kmh E 2.5 mph4.0 kmh 30.48 in1032.2 mb 0.00 in0.0 mm 0.00 in0.0 mm 0.00 in0.0 mm
02:50 AM 40.5°F4.7°C 40.5°F4.7°C 100% 0.6 mph SSW1.0 kmh SSW 1.7 mph2.7 kmh 30.48 in1032.2 mb 0.00 in0.0 mm 0.00 in0.0 mm 0.00 in0.0 mm
03:00 AM 40.6°F4.8°C 40.6°F4.8°C 100% 1.1 mph S1.8 kmh S 1.7 mph2.7 kmh 30.49 in1032.5 mb 0.00 in0.0 mm 0.00 in0.0 mm 0.00 in0.0 mm
03:10 AM 40.8°F4.9°C 40.8°F4.9°C 100% 0.8 mph W1.3 kmh W 1.7 mph2.7 kmh 30.49 in1032.5 mb 0.00 in0.0 mm 0.00 in0.0 mm 0.00 in0.0 mm
03:20 AM 41.0°F5.0°C 41.0°F5.0°C 100% 1.1 mph S1.8 kmh S 1.7 mph2.7 kmh 30.49 in1032.5 mb 0.00 in0.0 mm 0.00 in0.0 mm 0.00 in0.0 mm
03:30 AM 41.2°F5.1°C 41.2°F5.1°C 100% 1.6 mph ESE2.6 kmh ESE 2.5 mph4.0 kmh 30.49 in1032.5 mb 0.00 in0.0 mm 0.00 in0.0 mm 0.00 in0.0 mm
03:40 AM 41.4°F5.2°C 41.4°F5.2°C 100% 1.6 mph SSW2.6 kmh SSW 2.5 mph4.0 kmh 30.50 in1032.8 mb 0.00 in0.0 mm 0.00 in0.0 mm 0.00 in0.0 mm
03:50 AM 41.5°F5.3°C 41.5°F5.3°C 100% 1.7 mph SSW2.7 kmh SSW 2.5 mph4.0 kmh 30.50 in1032.8 mb 0.00 in0.0 mm 0.00 in0.0 mm 0.00 in0.0 mm
04:00 AM 41.5°F5.3°C 41.5°F5.3°C 100% 1.3 mph SSE2.1 kmh SSE 2.5 mph4.0 kmh 30.50 in1032.8 mb 0.00 in0.0 mm 0.00 in0.0 mm 0.00 in0.0 mm
04:10 AM 41.4°F5.2°C 41.4°F5.2°C 100% 1.2 mph SE1.9 kmh SE 1.7 mph2.7 kmh 30.50 in1032.8 mb 0.00 in0.0 mm 0.00 in0.0 mm 0.00 in0.0 mm
04:20 AM 41.2°F5.1°C 41.2°F5.1°C 100% 1.4 mph W2.3 kmh W 2.5 mph4.0 kmh 30.50 in1032.8 mb 0.00 in0.0 mm 0.00 in0.0 mm 0.00 in0.0 mm
04:30 AM 41.4°F5.2°C 41.4°F5.2°C 100% 1.4 mph NNW2.3 kmh NNW 3.4 mph5.5 kmh 30.51 in1033.2 mb 0.00 in0.0 mm 0.00 in0.0 mm 0.00 in0.0 mm
04:40 AM 41.5°F5.3°C 41.5°F5.3°C 100% 1.5 mph SW2.4 kmh SW 4.2 mph6.8 kmh 30.51 in1033.2 mb 0.00 in0.0 mm 0.00 in0.0 mm 0.00 in0.0 mm
04:50 AM 41.5°F5.3°C 41.5°F5.3°C 100% 1.0 mph WSW1.6 kmh WSW 2.5 mph4.0 kmh 30.52 in1033.5 mb 0.00 in0.0 mm 0.00 in0.0 mm 0.00 in0.0 mm
05:00 AM 41.5°F5.3°C 41.5°F5.3°C 100% 1.5 mph S2.4 kmh S 4.2 mph6.8 kmh 30.52 in1033.5 mb 0.00 in0.0 mm 0.00 in0.0 mm 0.00 in0.0 mm
05:10 AM 41.4°F5.2°C 41.4°F5.2°C 100% 0.5 mph SSE0.8 kmh SSE 2.5 mph4.0 kmh 30.52 in1033.5 mb 0.00 in0.0 mm 0.00 in0.0 mm 0.00 in0.0 mm
05:20 AM 41.2°F5.1°C 41.2°F5.1°C 100% 1.4 mph WSW2.3 kmh WSW 2.5 mph4.0 kmh 30.52 in1033.5 mb 0.00 in0.0 mm 0.00 in0.0 mm 0.00 in0.0 mm
05:30 AM 41.2°F5.1°C 41.2°F5.1°C 100% 1.1 mph SW1.8 kmh SW 2.5 mph4.0 kmh 30.52 in1033.5 mb 0.00 in0.0 mm 0.00 in0.0 mm 0.00 in0.0 mm
05:40 AM 41.2°F5.1°C 41.2°F5.1°C 100% 1.4 mph SSW2.3 kmh SSW 2.5 mph4.0 kmh 30.53 in1033.9 mb 0.00 in0.0 mm 0.00 in0.0 mm 0.00 in0.0 mm
05:50 AM 40.5°F4.7°C 40.5°F4.7°C 100% 2.1 mph S3.4 kmh S 2.5 mph4.0 kmh 30.53 in1033.9 mb 0.00 in0.0 mm 0.00 in0.0 mm 0.00 in0.0 mm
06:00 AM 39.6°F4.2°C 39.6°F4.2°C 100% 1.5 mph SW2.4 kmh SW 2.5 mph4.0 kmh 30.54 in1034.2 mb 0.00 in0.0 mm 0.00 in0.0 mm 0.00 in0.0 mm
06:10 AM 39.4°F4.1°C 39.4°F4.1°C 100% 1.4 mph W2.3 kmh W 2.5 mph4.0 kmh 30.54 in1034.2 mb 0.00 in0.0 mm 0.00 in0.0 mm 0.00 in0.0 mm
06:20 AM 39.4°F4.1°C 39.4°F4.1°C 100% 1.4 mph SW2.3 kmh SW 2.5 mph4.0 kmh 30.54 in1034.2 mb 0.00 in0.0 mm 0.00 in0.0 mm 0.00 in0.0 mm
06:30 AM 39.7°F4.3°C 39.7°F4.3°C 100% 1.3 mph SW2.1 kmh SW 2.5 mph4.0 kmh 30.55 in1034.5 mb 0.00 in0.0 mm 0.00 in0.0 mm 0.00 in0.0 mm
06:40 AM 39.9°F4.4°C 39.9°F4.4°C 100% 0.8 mph W1.3 kmh W 2.5 mph4.0 kmh 30.55 in1034.5 mb 0.00 in0.0 mm 0.00 in0.0 mm 0.00 in0.0 mm
06:50 AM 40.3°F4.6°C 40.3°F4.6°C 100% 1.0 mph S1.6 kmh S 2.5 mph4.0 kmh 30.56 in1034.9 mb 0.00 in0.0 mm 0.00 in0.0 mm 0.00 in0.0 mm
07:00 AM 40.6°F4.8°C 40.6°F4.8°C 100% 1.7 mph WSW2.7 kmh WSW 3.4 mph5.5 kmh 30.56 in1034.9 mb 0.00 in0.0 mm 0.00 in0.0 mm 0.00 in0.0 mm
07:10 AM 41.2°F5.1°C 41.2°F5.1°C 100% 1.0 mph SW1.6 kmh SW 2.5 mph4.0 kmh 30.56 in1034.9 mb 0.00 in0.0 mm 0.00 in0.0 mm 0.00 in0.0 mm
07:20 AM 41.9°F5.5°C 41.9°F5.5°C 100% 1.2 mph SSE1.9 kmh SSE 1.7 mph2.7 kmh 30.56 in1034.9 mb 0.00 in0.0 mm 0.00 in0.0 mm 0.00 in0.0 mm
07:30 AM 42.6°F5.9°C 42.6°F5.9°C 100% 1.0 mph SW1.6 kmh SW 3.4 mph5.5 kmh 30.57 in1035.2 mb 0.00 in0.0 mm 0.00 in0.0 mm 0.00 in0.0 mm
07:40 AM 43.5°F6.4°C 43.5°F6.4°C 100% 1.9 mph WNW3.1 kmh WNW 3.4 mph5.5 kmh 30.57 in1035.2 mb 0.00 in0.0 mm 0.00 in0.0 mm 0.00 in0.0 mm
07:50 AM 44.6°F7.0°C 44.3°F6.8°C 99% 3.1 mph SW5.0 kmh SW 4.9 mph7.9 kmh 30.57 in1035.2 mb 0.00 in0.0 mm 0.00 in0.0 mm 0.00 in0.0 mm
08:00 AM 45.5°F7.5°C 44.7°F7.1°C 97% 2.8 mph SSW4.5 kmh SSW 4.2 mph6.8 kmh 30.58 in1035.6 mb 0.00 in0.0 mm 0.00 in0.0 mm 0.00 in0.0 mm
08:10 AM 46.2°F7.9°C 44.6°F7.0°C 94% 3.2 mph NE5.1 kmh NE 4.2 mph6.8 kmh 30.58 in1035.6 mb 0.00 in0.0 mm 0.00 in0.0 mm 0.00 in0.0 mm
08:20 AM 46.9°F8.3°C 44.2°F6.8°C 90% 3.3 mph ENE5.3 kmh ENE 5.9 mph9.5 kmh 30.59 in1035.9 mb 0.00 in0.0 mm 0.00 in0.0 mm 0.00 in0.0 mm
08:30 AM 47.8°F8.8°C 43.9°F6.6°C 86% 3.6 mph NE5.8 kmh NE 4.9 mph7.9 kmh 30.59 in1035.9 mb 0.00 in0.0 mm 0.00 in0.0 mm 0.00 in0.0 mm
08:40 AM 48.2°F9.0°C 43.9°F6.6°C 85% 3.6 mph NNW5.8 kmh NNW 4.9 mph7.9 kmh 30.59 in1035.9 mb 0.00 in0.0 mm 0.00 in0.0 mm 0.00 in0.0 mm
08:50 AM 48.7°F9.3°C 44.4°F6.9°C 85% 2.5 mph ESE4.0 kmh ESE 4.9 mph7.9 kmh 30.60 in1036.2 mb 0.00 in0.0 mm 0.00 in0.0 mm 0.00 in0.0 mm
09:00 AM 49.3°F9.6°C 44.3°F6.8°C 83% 4.4 mph NNW7.1 kmh NNW 5.9 mph9.5 kmh 30.60 in1036.2 mb 0.00 in0.0 mm 0.00 in0.0 mm 0.00 in0.0 mm
09:10 AM 49.8°F9.9°C 44.5°F6.9°C 82% 2.3 mph NNE3.7 kmh NNE 3.4 mph5.5 kmh 30.60 in1036.2 mb 0.00 in0.0 mm 0.00 in0.0 mm 0.00 in0.0 mm
09:20 AM 51.8°F11.0°C 46.2°F7.9°C 81% 3.6 mph ESE5.8 kmh ESE 5.9 mph9.5 kmh 30.60 in1036.2 mb 0.00 in0.0 mm 0.00 in0.0 mm 0.00 in0.0 mm
09:30 AM 55.9°F13.3°C 45.9°F7.7°C 69% 3.8 mph E6.1 kmh E 4.9 mph7.9 kmh 30.61 in1036.6 mb 0.00 in0.0 mm 0.00 in0.0 mm 0.00 in0.0 mm
09:40 AM 57.7°F14.3°C 46.0°F7.8°C 65% 3.8 mph NNW6.1 kmh NNW 7.6 mph12.2 kmh 30.61 in1036.6 mb 0.00 in0.0 mm 0.00 in0.0 mm 0.00 in0.0 mm
09:50 AM 59.5°F15.3°C 46.5°F8.1°C 62% 3.7 mph S6.0 kmh S 4.9 mph7.9 kmh 30.61 in1036.6 mb 0.00 in0.0 mm 0.00 in0.0 mm 0.00 in0.0 mm
10:00 AM 59.9°F15.5°C 46.4°F8.0°C 61% 4.0 mph E6.4 kmh E 4.9 mph7.9 kmh 30.61 in1036.6 mb 0.00 in0.0 mm 0.00 in0.0 mm 0.00 in0.0 mm
10:10 AM 61.2°F16.2°C 46.3°F7.9°C 58% 3.1 mph NE5.0 kmh NE 4.2 mph6.8 kmh 30.61 in1036.6 mb 0.00 in0.0 mm 0.00 in0.0 mm 0.00 in0.0 mm
10:20 AM 61.3°F16.3°C 45.0°F7.2°C 55% 4.6 mph NW7.4 kmh NW 7.6 mph12.2 kmh 30.62 in1036.9 mb 0.00 in0.0 mm 0.00 in0.0 mm 0.00 in0.0 mm
10:30 AM 61.9°F16.6°C 45.5°F7.5°C 55% 3.8 mph WNW6.1 kmh WNW 4.9 mph7.9 kmh 30.61 in1036.6 mb 0.00 in0.0 mm 0.00 in0.0 mm 0.00 in0.0 mm
10:40 AM 62.2°F16.8°C 44.9°F7.2°C 53% 4.4 mph E7.1 kmh E 6.6 mph10.6 kmh 30.61 in1036.6 mb 0.00 in0.0 mm 0.00 in0.0 mm 0.00 in0.0 mm
10:50 AM 62.6°F17.0°C 42.1°F5.6°C 47% 4.2 mph SW6.8 kmh SW 5.9 mph9.5 kmh 30.62 in1036.9 mb 0.00 in0.0 mm 0.00 in0.0 mm 0.00 in0.0 mm
11:00 AM 62.8°F17.1°C 41.7°F5.4°C 46% 4.4 mph WSW7.1 kmh WSW 5.9 mph9.5 kmh 30.62 in1036.9 mb 0.00 in0.0 mm 0.00 in0.0 mm 0.00 in0.0 mm
11:10 AM 63.0°F17.2°C 41.3°F5.2°C 45% 4.6 mph SSE7.4 kmh SSE 6.6 mph10.6 kmh 30.62 in1036.9 mb 0.00 in0.0 mm 0.00 in0.0 mm 0.00 in0.0 mm
11:20 AM 63.7°F17.6°C 41.9°F5.5°C 45% 4.0 mph S6.4 kmh S 4.9 mph7.9 kmh 30.62 in1036.9 mb 0.00 in0.0 mm 0.00 in0.0 mm 0.00 in0.0 mm
11:30 AM 63.9°F17.7°C 42.7°F5.9°C 46% 3.7 mph SW6.0 kmh SW 6.6 mph10.6 kmh 30.62 in1036.9 mb 0.00 in0.0 mm 0.00 in0.0 mm 0.00 in0.0 mm
11:40 AM 63.1°F17.3°C 42.0°F5.6°C 46% 5.4 mph SSW8.7 kmh SSW 7.6 mph12.2 kmh 30.62 in1036.9 mb 0.00 in0.0 mm 0.00 in0.0 mm 0.00 in0.0 mm
11:50 AM 64.2°F17.9°C 43.0°F6.1°C 46% 3.8 mph W6.1 kmh W 4.2 mph6.8 kmh 30.63 in1037.3 mb 0.00 in0.0 mm 0.00 in0.0 mm 0.00 in0.0 mm
12:00 PM 63.7°F17.6°C 43.1°F6.2°C 47% 5.7 mph SW9.2 kmh SW 9.1 mph14.6 kmh 30.63 in1037.3 mb 0.00 in0.0 mm 0.00 in0.0 mm 0.00 in0.0 mm
12:10 PM 63.7°F17.6°C 43.1°F6.2°C 47% 4.9 mph WSW7.9 kmh WSW 4.2 mph6.8 kmh 30.63 in1037.3 mb 0.00 in0.0 mm 0.00 in0.0 mm 0.00 in0.0 mm
12:20 PM 63.7°F17.6°C 44.2°F6.8°C 49% 4.9 mph NE7.9 kmh NE 7.6 mph12.2 kmh 30.63 in1037.3 mb 0.00 in0.0 mm 0.00 in0.0 mm 0.00 in0.0 mm
12:30 PM 63.0°F17.2°C 43.0°F6.1°C 48% 5.3 mph WSW8.5 kmh WSW 7.6 mph12.2 kmh 30.62 in1036.9 mb 0.00 in0.0 mm 0.00 in0.0 mm 0.00 in0.0 mm
12:40 PM 62.4°F16.9°C 45.1°F7.3°C 53% 4.6 mph NE7.4 kmh NE 8.4 mph13.5 kmh 30.63 in1037.3 mb 0.00 in0.0 mm 0.00 in0.0 mm 0.00 in0.0 mm
12:50 PM 63.1°F17.3°C 44.2°F6.8°C 50% 5.1 mph S8.2 kmh S 11.8 mph19.0 kmh 30.62 in1036.9 mb 0.00 in0.0 mm 0.00 in0.0 mm 0.00 in0.0 mm
01:00 PM 62.8°F17.1°C 44.4°F6.9°C 51% 5.2 mph SW8.4 kmh SW 8.4 mph13.5 kmh 30.63 in1037.3 mb 0.00 in0.0 mm 0.00 in0.0 mm 0.00 in0.0 mm
01:10 PM 63.0°F17.2°C 45.1°F7.3°C 52% 3.3 mph S5.3 kmh S 5.9 mph9.5 kmh 30.63 in1037.3 mb 0.00 in0.0 mm 0.00 in0.0 mm 0.00 in0.0 mm
01:20 PM 63.1°F17.3°C 44.7°F7.1°C 51% 3.7 mph SE6.0 kmh SE 4.9 mph7.9 kmh 30.62 in1036.9 mb 0.00 in0.0 mm 0.00 in0.0 mm 0.00 in0.0 mm
01:30 PM 62.6°F17.0°C 43.7°F6.5°C 50% 3.7 mph S6.0 kmh S 4.2 mph6.8 kmh 30.62 in1036.9 mb 0.00 in0.0 mm 0.00 in0.0 mm 0.00 in0.0 mm
01:40 PM 62.4°F16.9°C 45.1°F7.3°C 53% 4.6 mph SW7.4 kmh SW 5.9 mph9.5 kmh 30.63 in1037.3 mb 0.00 in0.0 mm 0.00 in0.0 mm 0.00 in0.0 mm
01:50 PM 62.6°F17.0°C 43.2°F6.2°C 49% 4.9 mph SE7.9 kmh SE 6.6 mph10.6 kmh 30.63 in1037.3 mb 0.00 in0.0 mm 0.00 in0.0 mm 0.00 in0.0 mm
02:00 PM 62.4°F16.9°C 44.6°F7.0°C 52% 4.3 mph SE6.9 kmh SE 8.4 mph13.5 kmh 30.63 in1037.3 mb 0.00 in0.0 mm 0.00 in0.0 mm 0.00 in0.0 mm
02:10 PM 62.1°F16.7°C 44.7°F7.1°C 53% 5.5 mph NE8.9 kmh NE 5.9 mph9.5 kmh 30.63 in1037.3 mb 0.00 in0.0 mm 0.00 in0.0 mm 0.00 in0.0 mm
02:20 PM 60.3°F15.7°C 43.1°F6.2°C 53% 5.1 mph SSW8.2 kmh SSW 7.6 mph12.2 kmh 30.62 in1036.9 mb 0.00 in0.0 mm 0.00 in0.0 mm 0.00 in0.0 mm
02:30 PM 59.9°F15.5°C 43.2°F6.2°C 54% 4.8 mph WSW7.7 kmh WSW 7.6 mph12.2 kmh 30.63 in1037.3 mb 0.00 in0.0 mm 0.00 in0.0 mm 0.00 in0.0 mm
02:40 PM 61.0°F16.1°C 43.7°F6.5°C 53% 5.4 mph SSE8.7 kmh SSE 9.1 mph14.6 kmh 30.62 in1036.9 mb 0.00 in0.0 mm 0.00 in0.0 mm 0.00 in0.0 mm
02:50 PM 60.6°F15.9°C 43.4°F6.3°C 53% 4.4 mph NE7.1 kmh NE 7.6 mph12.2 kmh 30.62 in1036.9 mb 0.00 in0.0 mm 0.00 in0.0 mm 0.00 in0.0 mm
03:00 PM 61.3°F16.3°C 44.1°F6.7°C 53% 4.7 mph NE7.6 kmh NE 7.6 mph12.2 kmh 30.62 in1036.9 mb 0.00 in0.0 mm 0.00 in0.0 mm 0.00 in0.0 mm
03:10 PM 61.3°F16.3°C 44.1°F6.7°C 53% 4.3 mph NNW6.9 kmh NNW 5.9 mph9.5 kmh 30.62 in1036.9 mb 0.00 in0.0 mm 0.00 in0.0 mm 0.00 in0.0 mm
03:20 PM 61.5°F16.4°C 44.2°F6.8°C 53% 4.0 mph W6.4 kmh W 4.9 mph7.9 kmh 30.62 in1036.9 mb 0.00 in0.0 mm 0.00 in0.0 mm 0.00 in0.0 mm
03:30 PM 61.3°F16.3°C 44.1°F6.7°C 53% 3.1 mph SE5.0 kmh SE 4.9 mph7.9 kmh 30.61 in1036.6 mb 0.00 in0.0 mm 0.00 in0.0 mm 0.00 in0.0 mm
03:40 PM 60.6°F15.9°C 43.4°F6.3°C 53% 4.4 mph E7.1 kmh E 6.6 mph10.6 kmh 30.61 in1036.6 mb 0.00 in0.0 mm 0.00 in0.0 mm 0.00 in0.0 mm
03:50 PM 60.3°F15.7°C 43.1°F6.2°C 53% 3.7 mph SW6.0 kmh SW 5.9 mph9.5 kmh 30.61 in1036.6 mb 0.00 in0.0 mm 0.00 in0.0 mm 0.00 in0.0 mm
04:00 PM 59.9°F15.5°C 43.2°F6.2°C 54% 3.6 mph SE5.8 kmh SE 4.2 mph6.8 kmh 30.61 in1036.6 mb 0.00 in0.0 mm 0.00 in0.0 mm 0.00 in0.0 mm
04:10 PM 59.5°F15.3°C 43.3°F6.3°C 55% 3.9 mph WNW6.3 kmh WNW 4.2 mph6.8 kmh 30.61 in1036.6 mb 0.00 in0.0 mm 0.00 in0.0 mm 0.00 in0.0 mm
04:20 PM 59.0°F15.0°C 43.8°F6.6°C 57% 3.5 mph ENE5.6 kmh ENE 4.9 mph7.9 kmh 30.61 in1036.6 mb 0.00 in0.0 mm 0.00 in0.0 mm 0.00 in0.0 mm
04:30 PM 58.6°F14.8°C 43.9°F6.6°C 58% 2.8 mph SW4.5 kmh SW 3.4 mph5.5 kmh 30.61 in1036.6 mb 0.00 in0.0 mm 0.00 in0.0 mm 0.00 in0.0 mm
04:40 PM 58.3°F14.6°C 43.6°F6.4°C 58% 3.0 mph SE4.8 kmh SE 4.9 mph7.9 kmh 30.61 in1036.6 mb 0.00 in0.0 mm 0.00 in0.0 mm 0.00 in0.0 mm
04:50 PM 57.7°F14.3°C 43.1°F6.2°C 58% 3.3 mph SW5.3 kmh SW 4.9 mph7.9 kmh 30.61 in1036.6 mb 0.00 in0.0 mm 0.00 in0.0 mm 0.00 in0.0 mm
05:00 PM 57.4°F14.1°C 43.2°F6.2°C 59% 3.0 mph NW4.8 kmh NW 6.6 mph10.6 kmh 30.61 in1036.6 mb 0.00 in0.0 mm 0.00 in0.0 mm 0.00 in0.0 mm
05:10 PM 57.0°F13.9°C 43.7°F6.5°C 61% 2.0 mph WNW3.2 kmh WNW 4.2 mph6.8 kmh 30.62 in1036.9 mb 0.00 in0.0 mm 0.00 in0.0 mm 0.00 in0.0 mm
05:20 PM 56.7°F13.7°C 43.8°F6.6°C 62% 3.4 mph WSW5.5 kmh WSW 4.9 mph7.9 kmh 30.62 in1036.9 mb 0.00 in0.0 mm 0.00 in0.0 mm 0.00 in0.0 mm
05:30 PM 56.1°F13.4°C 43.7°F6.5°C 63% 2.4 mph WSW3.9 kmh WSW 3.4 mph5.5 kmh 30.62 in1036.9 mb 0.00 in0.0 mm 0.00 in0.0 mm 0.00 in0.0 mm
05:40 PM 55.8°F13.2°C 43.3°F6.3°C 63% 1.6 mph W2.6 kmh W 2.5 mph4.0 kmh 30.62 in1036.9 mb 0.00 in0.0 mm 0.00 in0.0 mm 0.00 in0.0 mm
05:50 PM 55.8°F13.2°C 43.8°F6.6°C 64% 1.3 mph WNW2.1 kmh WNW 2.5 mph4.0 kmh 30.62 in1036.9 mb 0.00 in0.0 mm 0.00 in0.0 mm 0.00 in0.0 mm
06:00 PM 55.2°F12.9°C 43.7°F6.5°C 65% 1.3 mph SW2.1 kmh SW 2.5 mph4.0 kmh 30.63 in1037.3 mb 0.00 in0.0 mm 0.00 in0.0 mm 0.00 in0.0 mm
06:10 PM 54.7°F12.6°C 43.1°F6.2°C 65% 0.9 mph NE1.4 kmh NE 1.7 mph2.7 kmh 30.63 in1037.3 mb 0.00 in0.0 mm 0.00 in0.0 mm 0.00 in0.0 mm
06:20 PM 53.8°F12.1°C 43.5°F6.4°C 68% 1.1 mph NNE1.8 kmh NNE 4.2 mph6.8 kmh 30.63 in1037.3 mb 0.00 in0.0 mm 0.00 in0.0 mm 0.00 in0.0 mm
06:30 PM 53.4°F11.9°C 45.0°F7.2°C 73% 0.5 mph N0.8 kmh N 2.5 mph4.0 kmh 30.63 in1037.3 mb 0.00 in0.0 mm 0.00 in0.0 mm 0.00 in0.0 mm
06:40 PM 52.9°F11.6°C 44.8°F7.1°C 74% 0.1 mph N0.2 kmh N 1.7 mph2.7 kmh 30.64 in1037.6 mb 0.00 in0.0 mm 0.00 in0.0 mm 0.00 in0.0 mm
06:50 PM 52.0°F11.1°C 44.3°F6.8°C 75% 0.1 mph NE0.2 kmh NE 1.7 mph2.7 kmh 30.64 in1037.6 mb 0.00 in0.0 mm 0.00 in0.0 mm 0.00 in0.0 mm
07:00 PM 51.6°F10.9°C 45.0°F7.2°C 78% 0.2 mph N0.3 kmh N 0.7 mph1.1 kmh 30.64 in1037.6 mb 0.00 in0.0 mm 0.00 in0.0 mm 0.00 in0.0 mm
07:10 PM 51.3°F10.7°C 45.0°F7.2°C 79% 0.2 mph WSW0.3 kmh WSW 1.7 mph2.7 kmh 30.64 in1037.6 mb 0.00 in0.0 mm 0.00 in0.0 mm 0.00 in0.0 mm
07:20 PM 51.1°F10.6°C 45.5°F7.5°C 81% 0.1 mph N0.2 kmh N 1.7 mph2.7 kmh 30.65 in1037.9 mb 0.00 in0.0 mm 0.00 in0.0 mm 0.00 in0.0 mm
07:30 PM 51.1°F10.6°C 45.8°F7.7°C 82% 0.8 mph NW1.3 kmh NW 2.5 mph4.0 kmh 30.65 in1037.9 mb 0.00 in0.0 mm 0.00 in0.0 mm 0.00 in0.0 mm
07:40 PM 50.9°F10.5°C 45.6°F7.6°C 82% 0.2 mph WNW0.3 kmh WNW 2.5 mph4.0 kmh 30.65 in1037.9 mb 0.00 in0.0 mm 0.00 in0.0 mm 0.00 in0.0 mm
07:50 PM 50.7°F10.4°C 45.4°F7.4°C 82% 0.4 mph SW0.6 kmh SW 1.7 mph2.7 kmh 30.66 in1038.3 mb 0.00 in0.0 mm 0.00 in0.0 mm 0.00 in0.0 mm
08:00 PM 50.5°F10.3°C 45.2°F7.3°C 82% 0.7 mph SSW1.1 kmh SSW 1.7 mph2.7 kmh 30.65 in1037.9 mb 0.00 in0.0 mm 0.00 in0.0 mm 0.00 in0.0 mm
08:10 PM 50.4°F10.2°C 45.1°F7.3°C 82% Calm Calm 0.7 mph1.1 kmh 30.65 in1037.9 mb 0.00 in0.0 mm 0.00 in0.0 mm 0.00 in0.0 mm
08:20 PM 49.8°F9.9°C 44.5°F6.9°C 82% 0.7 mph WSW1.1 kmh WSW 2.5 mph4.0 kmh 30.65 in1037.9 mb 0.00 in0.0 mm 0.00 in0.0 mm 0.00 in0.0 mm
08:30 PM 49.6°F9.8°C 44.7°F7.1°C 83% 1.2 mph SSW1.9 kmh SSW 2.5 mph4.0 kmh 30.66 in1038.3 mb 0.00 in0.0 mm 0.00 in0.0 mm 0.00 in0.0 mm
08:40 PM 49.1°F9.5°C 44.2°F6.8°C 83% Calm Calm 0.7 mph1.1 kmh 30.66 in1038.3 mb 0.00 in0.0 mm 0.00 in0.0 mm 0.00 in0.0 mm
08:50 PM 48.7°F9.3°C 43.8°F6.6°C 83% 0.4 mph SW0.6 kmh SW 1.7 mph2.7 kmh 30.66 in1038.3 mb 0.00 in0.0 mm 0.00 in0.0 mm 0.00 in0.0 mm
09:00 PM 48.4°F9.1°C 43.8°F6.6°C 84% 0.2 mph SW0.3 kmh SW 0.7 mph1.1 kmh 30.66 in1038.3 mb 0.00 in0.0 mm 0.00 in0.0 mm 0.00 in0.0 mm
09:10 PM 48.0°F8.9°C 43.4°F6.3°C 84% 0.2 mph SW0.3 kmh SW 1.7 mph2.7 kmh 30.66 in1038.3 mb 0.00 in0.0 mm 0.00 in0.0 mm 0.00 in0.0 mm
09:20 PM 47.5°F8.6°C 42.9°F6.1°C 84% Calm Calm 0.7 mph1.1 kmh 30.66 in1038.3 mb 0.00 in0.0 mm 0.00 in0.0 mm 0.00 in0.0 mm
09:30 PM 46.9°F8.3°C 42.7°F5.9°C 85% Calm Calm -- 30.66 in1038.3 mb 0.00 in0.0 mm 0.00 in0.0 mm 0.00 in0.0 mm
09:40 PM 46.6°F8.1°C 42.6°F5.9°C 86% Calm Calm 0.7 mph1.1 kmh 30.66 in1038.3 mb 0.00 in0.0 mm 0.00 in0.0 mm 0.00 in0.0 mm
09:50 PM 46.2°F7.9°C 42.3°F5.7°C 86% Calm Calm 0.7 mph1.1 kmh 30.66 in1038.3 mb 0.00 in0.0 mm 0.00 in0.0 mm 0.00 in0.0 mm
10:00 PM 46.0°F7.8°C 42.4°F5.8°C 87% Calm Calm 0.7 mph1.1 kmh 30.66 in1038.3 mb 0.00 in0.0 mm 0.00 in0.0 mm 0.00 in0.0 mm
10:10 PM 45.5°F7.5°C 41.9°F5.5°C 87% Calm Calm -- 30.66 in1038.3 mb 0.00 in0.0 mm 0.00 in0.0 mm 0.00 in0.0 mm
10:20 PM 45.1°F7.3°C 41.8°F5.4°C 88% 0.5 mph S0.8 kmh S 1.7 mph2.7 kmh 30.67 in1038.6 mb 0.00 in0.0 mm 0.00 in0.0 mm 0.00 in0.0 mm
10:30 PM 45.1°F7.3°C 42.1°F5.6°C 89% 0.1 mph WSW0.2 kmh WSW 1.7 mph2.7 kmh 30.66 in1038.3 mb 0.00 in0.0 mm 0.00 in0.0 mm 0.00 in0.0 mm
10:40 PM 45.1°F7.3°C 42.4°F5.8°C 90% 1.2 mph WSW1.9 kmh WSW 3.4 mph5.5 kmh 30.67 in1038.6 mb 0.00 in0.0 mm 0.00 in0.0 mm 0.00 in0.0 mm
10:50 PM 44.8°F7.1°C 42.0°F5.6°C 90% 1.4 mph W2.3 kmh W 2.5 mph4.0 kmh 30.66 in1038.3 mb 0.00 in0.0 mm 0.00 in0.0 mm 0.00 in0.0 mm
11:00 PM 44.4°F6.9°C 43.1°F6.2°C 95% 2.0 mph SW3.2 kmh SW 2.5 mph4.0 kmh 30.67 in1038.6 mb 0.00 in0.0 mm 0.00 in0.0 mm 0.00 in0.0 mm
11:10 PM 44.4°F6.9°C 43.4°F6.3°C 96% 1.5 mph SW2.4 kmh SW 2.5 mph4.0 kmh 30.67 in1038.6 mb 0.00 in0.0 mm 0.00 in0.0 mm 0.00 in0.0 mm
11:20 PM 44.2°F6.8°C 43.2°F6.2°C 96% 0.9 mph WSW1.4 kmh WSW 1.7 mph2.7 kmh 30.67 in1038.6 mb 0.00 in0.0 mm 0.00 in0.0 mm 0.00 in0.0 mm
11:30 PM 44.1°F6.7°C 43.0°F6.1°C 96% 1.3 mph SSW2.1 kmh SSW 2.5 mph4.0 kmh 30.66 in1038.3 mb 0.00 in0.0 mm 0.00 in0.0 mm 0.00 in0.0 mm
11:40 PM 43.9°F6.6°C 42.8°F6.0°C 96% 1.1 mph WSW1.8 kmh WSW 1.7 mph2.7 kmh 30.68 in1038.9 mb 0.00 in0.0 mm 0.00 in0.0 mm 0.00 in0.0 mm
11:50 PM 43.7°F6.5°C 42.9°F6.1°C 97% 0.9 mph WSW1.4 kmh WSW 1.7 mph2.7 kmh 30.67 in1038.6 mb 0.00 in0.0 mm 0.00 in0.0 mm 0.00 in0.0 mm